sensor_id;sensor_type;location;lat;lon;timestamp;P1;durP1;ratioP1;P2;durP2;ratioP2
33830;SDS011;20137;48.834;8.732;2023-03-01T00:01:16;33.13;;;17.58;;
33830;SDS011;20137;48.834;8.732;2023-03-01T00:03:43;35.10;;;17.73;;
33830;SDS011;20137;48.834;8.732;2023-03-01T00:06:09;41.88;;;18.25;;
33830;SDS011;20137;48.834;8.732;2023-03-01T00:08:36;34.22;;;17.50;;
33830;SDS011;20137;48.834;8.732;2023-03-01T00:13:32;35.80;;;17.02;;
33830;SDS011;20137;48.834;8.732;2023-03-01T00:16:01;32.75;;;17.52;;
33830;SDS011;20137;48.834;8.732;2023-03-01T00:18:31;41.38;;;19.00;;
33830;SDS011;20137;48.834;8.732;2023-03-01T00:20:57;35.65;;;18.58;;
33830;SDS011;20137;48.834;8.732;2023-03-01T00:23:23;38.03;;;17.83;;
33830;SDS011;20137;48.834;8.732;2023-03-01T00:25:49;32.35;;;17.65;;
33830;SDS011;20137;48.834;8.732;2023-03-01T00:28:15;33.35;;;17.83;;
33830;SDS011;20137;48.834;8.732;2023-03-01T00:30:41;40.92;;;17.83;;
33830;SDS011;20137;48.834;8.732;2023-03-01T00:33:07;36.25;;;18.27;;
33830;SDS011;20137;48.834;8.732;2023-03-01T00:35:33;34.95;;;18.13;;
33830;SDS011;20137;48.834;8.732;2023-03-01T00:37:59;38.72;;;19.23;;
33830;SDS011;20137;48.834;8.732;2023-03-01T00:40:25;37.95;;;18.95;;
33830;SDS011;20137;48.834;8.732;2023-03-01T00:42:51;38.72;;;18.88;;
33830;SDS011;20137;48.834;8.732;2023-03-01T00:45:17;34.28;;;18.52;;
33830;SDS011;20137;48.834;8.732;2023-03-01T00:47:43;38.90;;;18.70;;
33830;SDS011;20137;48.834;8.732;2023-03-01T00:50:09;44.42;;;20.17;;
33830;SDS011;20137;48.834;8.732;2023-03-01T00:52:35;37.22;;;18.83;;
33830;SDS011;20137;48.834;8.732;2023-03-01T00:55:02;37.85;;;19.38;;
33830;SDS011;20137;48.834;8.732;2023-03-01T00:57:28;36.97;;;18.42;;
33830;SDS011;20137;48.834;8.732;2023-03-01T00:59:53;37.92;;;18.65;;
33830;SDS011;20137;48.834;8.732;2023-03-01T01:02:19;37.08;;;19.25;;
33830;SDS011;20137;48.834;8.732;2023-03-01T01:04:45;34.95;;;18.70;;
33830;SDS011;20137;48.834;8.732;2023-03-01T01:07:11;37.92;;;18.73;;
33830;SDS011;20137;48.834;8.732;2023-03-01T01:09:37;39.75;;;18.30;;
33830;SDS011;20137;48.834;8.732;2023-03-01T01:12:03;37.38;;;17.88;;
33830;SDS011;20137;48.834;8.732;2023-03-01T01:14:29;38.25;;;19.17;;
33830;SDS011;20137;48.834;8.732;2023-03-01T01:16:56;33.88;;;18.25;;
33830;SDS011;20137;48.834;8.732;2023-03-01T01:19:21;36.95;;;19.33;;
33830;SDS011;20137;48.834;8.732;2023-03-01T01:21:50;43.17;;;19.67;;
33830;SDS011;20137;48.834;8.732;2023-03-01T01:24:16;35.97;;;18.92;;
33830;SDS011;20137;48.834;8.732;2023-03-01T01:26:42;39.92;;;19.00;;
33830;SDS011;20137;48.834;8.732;2023-03-01T01:29:08;36.53;;;18.63;;
33830;SDS011;20137;48.834;8.732;2023-03-01T01:31:35;34.63;;;18.83;;
33830;SDS011;20137;48.834;8.732;2023-03-01T01:34:04;38.20;;;19.23;;
33830;SDS011;20137;48.834;8.732;2023-03-01T01:36:31;42.47;;;19.45;;
33830;SDS011;20137;48.834;8.732;2023-03-01T01:38:58;35.78;;;19.23;;
33830;SDS011;20137;48.834;8.732;2023-03-01T01:41:25;40.33;;;19.60;;
33830;SDS011;20137;48.834;8.732;2023-03-01T01:46:40;44.50;;;19.77;;
33830;SDS011;20137;48.834;8.732;2023-03-01T01:49:36;37.95;;;19.55;;
33830;SDS011;20137;48.834;8.732;2023-03-01T01:52:21;40.88;;;20.17;;
33830;SDS011;20137;48.834;8.732;2023-03-01T01:54:55;38.70;;;18.50;;
33830;SDS011;20137;48.834;8.732;2023-03-01T01:57:43;34.85;;;17.88;;
33830;SDS011;20137;48.834;8.732;2023-03-01T02:00:12;42.60;;;20.65;;
33830;SDS011;20137;48.834;8.732;2023-03-01T02:02:41;39.67;;;19.25;;
33830;SDS011;20137;48.834;8.732;2023-03-01T02:05:15;38.53;;;19.30;;
33830;SDS011;20137;48.834;8.732;2023-03-01T02:07:47;41.40;;;19.73;;
33830;SDS011;20137;48.834;8.732;2023-03-01T02:10:14;38.75;;;20.20;;
33830;SDS011;20137;48.834;8.732;2023-03-01T02:12:40;43.50;;;20.48;;
33830;SDS011;20137;48.834;8.732;2023-03-01T02:15:07;46.45;;;19.83;;
33830;SDS011;20137;48.834;8.732;2023-03-01T02:17:44;40.10;;;19.73;;
33830;SDS011;20137;48.834;8.732;2023-03-01T02:20:19;41.88;;;20.30;;
33830;SDS011;20137;48.834;8.732;2023-03-01T02:22:54;40.83;;;20.23;;
33830;SDS011;20137;48.834;8.732;2023-03-01T02:25:34;40.92;;;19.60;;
33830;SDS011;20137;48.834;8.732;2023-03-01T02:30:47;42.87;;;21.33;;
33830;SDS011;20137;48.834;8.732;2023-03-01T02:33:34;43.33;;;20.55;;
33830;SDS011;20137;48.834;8.732;2023-03-01T02:36:03;41.42;;;19.88;;
33830;SDS011;20137;48.834;8.732;2023-03-01T02:38:33;43.70;;;21.75;;
33830;SDS011;20137;48.834;8.732;2023-03-01T02:40:59;44.13;;;20.88;;
33830;SDS011;20137;48.834;8.732;2023-03-01T02:43:27;49.35;;;21.10;;
33830;SDS011;20137;48.834;8.732;2023-03-01T02:46:04;46.70;;;21.70;;
33830;SDS011;20137;48.834;8.732;2023-03-01T02:48:45;48.17;;;22.27;;
33830;SDS011;20137;48.834;8.732;2023-03-01T02:54:01;48.45;;;21.55;;
33830;SDS011;20137;48.834;8.732;2023-03-01T02:57:05;50.95;;;21.45;;
33830;SDS011;20137;48.834;8.732;2023-03-01T02:59:32;47.03;;;23.58;;
33830;SDS011;20137;48.834;8.732;2023-03-01T03:02:04;48.80;;;22.77;;
33830;SDS011;20137;48.834;8.732;2023-03-01T03:04:30;49.90;;;22.98;;
33830;SDS011;20137;48.834;8.732;2023-03-01T03:06:56;45.92;;;21.60;;
33830;SDS011;20137;48.834;8.732;2023-03-01T03:09:22;44.38;;;21.48;;
33830;SDS011;20137;48.834;8.732;2023-03-01T03:11:48;46.80;;;20.95;;
33830;SDS011;20137;48.834;8.732;2023-03-01T03:14:14;43.20;;;20.85;;
33830;SDS011;20137;48.834;8.732;2023-03-01T03:16:42;46.85;;;23.10;;
33830;SDS011;20137;48.834;8.732;2023-03-01T03:19:09;45.17;;;21.63;;
33830;SDS011;20137;48.834;8.732;2023-03-01T03:21:35;49.67;;;22.92;;
33830;SDS011;20137;48.834;8.732;2023-03-01T03:24:01;46.38;;;23.15;;
33830;SDS011;20137;48.834;8.732;2023-03-01T03:26:27;45.95;;;23.52;;
33830;SDS011;20137;48.834;8.732;2023-03-01T03:28:53;50.33;;;23.40;;
33830;SDS011;20137;48.834;8.732;2023-03-01T03:31:19;48.28;;;23.27;;
33830;SDS011;20137;48.834;8.732;2023-03-01T03:33:44;50.03;;;24.33;;
33830;SDS011;20137;48.834;8.732;2023-03-01T03:36:14;49.42;;;23.42;;
33830;SDS011;20137;48.834;8.732;2023-03-01T03:38:43;54.45;;;24.80;;
33830;SDS011;20137;48.834;8.732;2023-03-01T03:41:09;47.67;;;22.92;;
33830;SDS011;20137;48.834;8.732;2023-03-01T03:43:35;46.20;;;23.30;;
33830;SDS011;20137;48.834;8.732;2023-03-01T03:46:02;49.13;;;21.90;;
33830;SDS011;20137;48.834;8.732;2023-03-01T03:48:35;46.28;;;21.58;;
33830;SDS011;20137;48.834;8.732;2023-03-01T03:51:03;44.50;;;22.20;;
33830;SDS011;20137;48.834;8.732;2023-03-01T03:53:32;50.65;;;22.60;;
33830;SDS011;20137;48.834;8.732;2023-03-01T03:55:57;45.22;;;22.92;;
33830;SDS011;20137;48.834;8.732;2023-03-01T03:58:23;47.60;;;23.08;;
33830;SDS011;20137;48.834;8.732;2023-03-01T04:00:54;49.15;;;22.63;;
33830;SDS011;20137;48.834;8.732;2023-03-01T04:03:22;47.75;;;23.08;;
33830;SDS011;20137;48.834;8.732;2023-03-01T04:05:49;52.75;;;24.33;;
33830;SDS011;20137;48.834;8.732;2023-03-01T04:08:18;49.10;;;23.17;;
33830;SDS011;20137;48.834;8.732;2023-03-01T04:10:51;49.00;;;22.70;;
33830;SDS011;20137;48.834;8.732;2023-03-01T04:13:21;48.58;;;22.73;;
33830;SDS011;20137;48.834;8.732;2023-03-01T04:15:48;54.80;;;24.98;;
33830;SDS011;20137;48.834;8.732;2023-03-01T04:18:15;47.47;;;24.33;;
33830;SDS011;20137;48.834;8.732;2023-03-01T04:20:43;52.53;;;23.92;;
33830;SDS011;20137;48.834;8.732;2023-03-01T04:23:14;46.85;;;23.25;;
33830;SDS011;20137;48.834;8.732;2023-03-01T04:25:54;50.30;;;25.05;;
33830;SDS011;20137;48.834;8.732;2023-03-01T04:30:55;51.10;;;24.20;;
33830;SDS011;20137;48.834;8.732;2023-03-01T04:33:23;48.80;;;23.40;;
33830;SDS011;20137;48.834;8.732;2023-03-01T04:35:49;46.08;;;22.70;;
33830;SDS011;20137;48.834;8.732;2023-03-01T04:38:18;46.60;;;22.27;;
33830;SDS011;20137;48.834;8.732;2023-03-01T04:40:44;46.53;;;23.48;;
33830;SDS011;20137;48.834;8.732;2023-03-01T04:43:10;43.88;;;22.90;;
33830;SDS011;20137;48.834;8.732;2023-03-01T04:45:38;44.30;;;22.10;;
33830;SDS011;20137;48.834;8.732;2023-03-01T04:48:04;44.65;;;22.13;;
33830;SDS011;20137;48.834;8.732;2023-03-01T04:50:30;47.55;;;22.50;;
33830;SDS011;20137;48.834;8.732;2023-03-01T04:52:55;46.40;;;22.67;;
33830;SDS011;20137;48.834;8.732;2023-03-01T04:55:27;41.10;;;21.10;;
33830;SDS011;20137;48.834;8.732;2023-03-01T04:57:53;41.00;;;21.85;;
33830;SDS011;20137;48.834;8.732;2023-03-01T05:00:20;45.00;;;21.90;;
33830;SDS011;20137;48.834;8.732;2023-03-01T05:05:14;43.55;;;22.33;;
33830;SDS011;20137;48.834;8.732;2023-03-01T05:07:40;43.85;;;21.58;;
33830;SDS011;20137;48.834;8.732;2023-03-01T05:10:06;44.72;;;23.42;;
33830;SDS011;20137;48.834;8.732;2023-03-01T05:12:32;47.78;;;22.58;;
33830;SDS011;20137;48.834;8.732;2023-03-01T05:14:57;44.75;;;22.80;;
33830;SDS011;20137;48.834;8.732;2023-03-01T05:17:23;43.85;;;22.20;;
33830;SDS011;20137;48.834;8.732;2023-03-01T05:19:49;50.53;;;24.95;;
33830;SDS011;20137;48.834;8.732;2023-03-01T05:22:15;50.00;;;23.38;;
33830;SDS011;20137;48.834;8.732;2023-03-01T05:24:41;46.72;;;22.30;;
33830;SDS011;20137;48.834;8.732;2023-03-01T05:27:07;45.50;;;22.77;;
33830;SDS011;20137;48.834;8.732;2023-03-01T05:29:33;47.05;;;23.75;;
33830;SDS011;20137;48.834;8.732;2023-03-01T05:32:00;48.83;;;22.70;;
33830;SDS011;20137;48.834;8.732;2023-03-01T05:34:32;46.25;;;23.52;;
33830;SDS011;20137;48.834;8.732;2023-03-01T05:37:00;47.85;;;21.80;;
33830;SDS011;20137;48.834;8.732;2023-03-01T05:39:27;46.50;;;24.02;;
33830;SDS011;20137;48.834;8.732;2023-03-01T05:41:54;44.65;;;22.45;;
33830;SDS011;20137;48.834;8.732;2023-03-01T05:44:21;43.42;;;23.55;;
33830;SDS011;20137;48.834;8.732;2023-03-01T05:46:47;44.90;;;23.40;;
33830;SDS011;20137;48.834;8.732;2023-03-01T05:49:13;44.17;;;22.67;;
33830;SDS011;20137;48.834;8.732;2023-03-01T05:51:40;48.67;;;23.50;;
33830;SDS011;20137;48.834;8.732;2023-03-01T05:54:06;57.00;;;25.70;;
33830;SDS011;20137;48.834;8.732;2023-03-01T05:56:33;50.95;;;24.33;;
33830;SDS011;20137;48.834;8.732;2023-03-01T05:59:00;50.55;;;24.33;;
33830;SDS011;20137;48.834;8.732;2023-03-01T06:01:26;49.85;;;23.55;;
33830;SDS011;20137;48.834;8.732;2023-03-01T06:03:52;50.25;;;24.90;;
33830;SDS011;20137;48.834;8.732;2023-03-01T06:06:18;47.60;;;23.15;;
33830;SDS011;20137;48.834;8.732;2023-03-01T06:08:43;47.20;;;23.17;;
33830;SDS011;20137;48.834;8.732;2023-03-01T06:11:09;48.47;;;24.15;;
33830;SDS011;20137;48.834;8.732;2023-03-01T06:13:35;47.00;;;24.20;;
33830;SDS011;20137;48.834;8.732;2023-03-01T06:16:03;49.42;;;24.20;;
33830;SDS011;20137;48.834;8.732;2023-03-01T06:18:30;54.58;;;26.52;;
33830;SDS011;20137;48.834;8.732;2023-03-01T06:20:56;47.47;;;25.10;;
33830;SDS011;20137;48.834;8.732;2023-03-01T06:23:22;50.75;;;25.92;;
33830;SDS011;20137;48.834;8.732;2023-03-01T06:25:49;50.35;;;24.27;;
33830;SDS011;20137;48.834;8.732;2023-03-01T06:28:14;43.58;;;23.73;;
33830;SDS011;20137;48.834;8.732;2023-03-01T06:30:40;47.85;;;23.95;;
33830;SDS011;20137;48.834;8.732;2023-03-01T06:33:06;45.42;;;23.50;;
33830;SDS011;20137;48.834;8.732;2023-03-01T06:35:31;46.28;;;23.23;;
33830;SDS011;20137;48.834;8.732;2023-03-01T06:38:00;53.22;;;24.50;;
33830;SDS011;20137;48.834;8.732;2023-03-01T06:40:27;48.38;;;23.08;;
33830;SDS011;20137;48.834;8.732;2023-03-01T06:42:54;47.88;;;24.92;;
33830;SDS011;20137;48.834;8.732;2023-03-01T06:45:20;52.03;;;25.95;;
33830;SDS011;20137;48.834;8.732;2023-03-01T06:47:46;50.65;;;24.60;;
33830;SDS011;20137;48.834;8.732;2023-03-01T06:50:12;55.60;;;26.45;;
33830;SDS011;20137;48.834;8.732;2023-03-01T06:52:38;44.88;;;22.95;;
33830;SDS011;20137;48.834;8.732;2023-03-01T06:55:04;44.92;;;23.13;;
33830;SDS011;20137;48.834;8.732;2023-03-01T06:57:30;43.05;;;22.20;;
33830;SDS011;20137;48.834;8.732;2023-03-01T06:59:56;49.83;;;23.77;;
33830;SDS011;20137;48.834;8.732;2023-03-01T07:02:22;44.95;;;22.88;;
33830;SDS011;20137;48.834;8.732;2023-03-01T07:04:50;49.35;;;24.67;;
33830;SDS011;20137;48.834;8.732;2023-03-01T07:07:17;51.97;;;23.80;;
33830;SDS011;20137;48.834;8.732;2023-03-01T07:09:43;43.47;;;23.27;;
33830;SDS011;20137;48.834;8.732;2023-03-01T07:12:09;47.22;;;23.80;;
33830;SDS011;20137;48.834;8.732;2023-03-01T07:14:35;46.10;;;23.25;;
33830;SDS011;20137;48.834;8.732;2023-03-01T07:17:01;43.33;;;22.95;;
33830;SDS011;20137;48.834;8.732;2023-03-01T07:19:27;50.03;;;24.52;;
33830;SDS011;20137;48.834;8.732;2023-03-01T07:21:52;47.78;;;23.20;;
33830;SDS011;20137;48.834;8.732;2023-03-01T07:24:18;44.80;;;22.35;;
33830;SDS011;20137;48.834;8.732;2023-03-01T07:26:47;46.05;;;22.42;;
33830;SDS011;20137;48.834;8.732;2023-03-01T07:29:14;46.05;;;23.77;;
33830;SDS011;20137;48.834;8.732;2023-03-01T07:31:39;47.65;;;22.35;;
33830;SDS011;20137;48.834;8.732;2023-03-01T07:34:05;47.83;;;23.33;;
33830;SDS011;20137;48.834;8.732;2023-03-01T07:36:30;46.90;;;23.90;;
33830;SDS011;20137;48.834;8.732;2023-03-01T07:38:56;50.92;;;23.38;;
33830;SDS011;20137;48.834;8.732;2023-03-01T07:41:22;57.80;;;24.52;;
33830;SDS011;20137;48.834;8.732;2023-03-01T07:43:48;45.22;;;22.63;;
33830;SDS011;20137;48.834;8.732;2023-03-01T07:46:14;43.30;;;21.77;;
33830;SDS011;20137;48.834;8.732;2023-03-01T07:48:40;46.83;;;23.05;;
33830;SDS011;20137;48.834;8.732;2023-03-01T07:51:05;49.20;;;24.30;;
33830;SDS011;20137;48.834;8.732;2023-03-01T07:53:32;48.20;;;23.52;;
33830;SDS011;20137;48.834;8.732;2023-03-01T07:56:02;48.97;;;23.23;;
33830;SDS011;20137;48.834;8.732;2023-03-01T07:58:29;46.38;;;23.55;;
33830;SDS011;20137;48.834;8.732;2023-03-01T08:00:55;44.40;;;23.10;;
33830;SDS011;20137;48.834;8.732;2023-03-01T08:03:21;46.58;;;23.95;;
33830;SDS011;20137;48.834;8.732;2023-03-01T08:05:47;49.10;;;23.30;;
33830;SDS011;20137;48.834;8.732;2023-03-01T08:08:12;45.33;;;23.63;;
33830;SDS011;20137;48.834;8.732;2023-03-01T08:10:38;48.65;;;22.98;;
33830;SDS011;20137;48.834;8.732;2023-03-01T08:13:03;46.08;;;23.38;;
33830;SDS011;20137;48.834;8.732;2023-03-01T08:15:29;51.22;;;24.02;;
33830;SDS011;20137;48.834;8.732;2023-03-01T08:17:55;46.63;;;24.70;;
33830;SDS011;20137;48.834;8.732;2023-03-01T08:20:20;44.70;;;23.45;;
33830;SDS011;20137;48.834;8.732;2023-03-01T08:22:49;45.38;;;23.75;;
33830;SDS011;20137;48.834;8.732;2023-03-01T08:25:15;49.65;;;24.08;;
33830;SDS011;20137;48.834;8.732;2023-03-01T08:27:40;47.50;;;23.65;;
33830;SDS011;20137;48.834;8.732;2023-03-01T08:30:06;44.72;;;22.60;;
33830;SDS011;20137;48.834;8.732;2023-03-01T08:32:36;49.90;;;24.00;;
33830;SDS011;20137;48.834;8.732;2023-03-01T08:35:03;47.70;;;22.27;;
33830;SDS011;20137;48.834;8.732;2023-03-01T08:37:29;47.35;;;23.17;;
33830;SDS011;20137;48.834;8.732;2023-03-01T08:39:57;48.92;;;23.70;;
33830;SDS011;20137;48.834;8.732;2023-03-01T08:42:24;46.30;;;23.45;;
33830;SDS011;20137;48.834;8.732;2023-03-01T08:44:49;55.70;;;25.52;;
33830;SDS011;20137;48.834;8.732;2023-03-01T08:47:15;49.67;;;24.67;;
33830;SDS011;20137;48.834;8.732;2023-03-01T08:49:42;43.88;;;23.17;;
33830;SDS011;20137;48.834;8.732;2023-03-01T08:52:07;45.13;;;22.95;;
33830;SDS011;20137;48.834;8.732;2023-03-01T08:54:33;49.17;;;24.70;;
33830;SDS011;20137;48.834;8.732;2023-03-01T08:57:01;48.80;;;23.33;;
33830;SDS011;20137;48.834;8.732;2023-03-01T08:59:27;48.10;;;24.83;;
33830;SDS011;20137;48.834;8.732;2023-03-01T09:01:54;45.85;;;23.92;;
33830;SDS011;20137;48.834;8.732;2023-03-01T09:04:20;47.65;;;23.50;;
33830;SDS011;20137;48.834;8.732;2023-03-01T09:06:47;49.08;;;23.75;;
33830;SDS011;20137;48.834;8.732;2023-03-01T09:09:16;48.53;;;24.05;;
33830;SDS011;20137;48.834;8.732;2023-03-01T09:11:43;66.18;;;29.50;;
33830;SDS011;20137;48.834;8.732;2023-03-01T09:14:11;59.63;;;30.48;;
33830;SDS011;20137;48.834;8.732;2023-03-01T09:16:37;53.75;;;25.10;;
33830;SDS011;20137;48.834;8.732;2023-03-01T09:19:03;51.85;;;24.05;;
33830;SDS011;20137;48.834;8.732;2023-03-01T09:21:29;50.20;;;25.58;;
33830;SDS011;20137;48.834;8.732;2023-03-01T09:23:56;48.55;;;23.50;;
33830;SDS011;20137;48.834;8.732;2023-03-01T09:26:22;49.90;;;25.38;;
33830;SDS011;20137;48.834;8.732;2023-03-01T09:28:49;48.25;;;25.10;;
33830;SDS011;20137;48.834;8.732;2023-03-01T09:31:17;46.30;;;23.65;;
33830;SDS011;20137;48.834;8.732;2023-03-01T09:33:48;46.05;;;23.52;;
33830;SDS011;20137;48.834;8.732;2023-03-01T09:36:18;46.35;;;24.02;;
33830;SDS011;20137;48.834;8.732;2023-03-01T09:38:46;47.60;;;23.63;;
33830;SDS011;20137;48.834;8.732;2023-03-01T09:43:59;46.92;;;23.95;;
33830;SDS011;20137;48.834;8.732;2023-03-01T09:46:29;52.45;;;24.98;;
33830;SDS011;20137;48.834;8.732;2023-03-01T09:49:08;46.30;;;24.80;;
33830;SDS011;20137;48.834;8.732;2023-03-01T09:51:37;41.90;;;24.43;;
33830;SDS011;20137;48.834;8.732;2023-03-01T09:54:03;43.75;;;23.73;;
33830;SDS011;20137;48.834;8.732;2023-03-01T10:01:56;45.65;;;23.35;;
33830;SDS011;20137;48.834;8.732;2023-03-01T10:04:40;45.33;;;23.45;;
33830;SDS011;20137;48.834;8.732;2023-03-01T10:07:37;44.58;;;24.05;;
33830;SDS011;20137;48.834;8.732;2023-03-01T10:10:26;46.60;;;24.50;;
33830;SDS011;20137;48.834;8.732;2023-03-01T10:13:13;44.28;;;23.40;;
33830;SDS011;20137;48.834;8.732;2023-03-01T10:15:47;44.80;;;23.35;;
33830;SDS011;20137;48.834;8.732;2023-03-01T10:18:20;49.20;;;24.77;;
33830;SDS011;20137;48.834;8.732;2023-03-01T10:21:14;45.10;;;23.63;;
33830;SDS011;20137;48.834;8.732;2023-03-01T10:23:41;43.97;;;23.15;;
33830;SDS011;20137;48.834;8.732;2023-03-01T10:29:09;49.33;;;23.73;;
33830;SDS011;20137;48.834;8.732;2023-03-01T10:34:19;44.83;;;24.30;;
33830;SDS011;20137;48.834;8.732;2023-03-01T10:36:48;45.28;;;22.63;;
33830;SDS011;20137;48.834;8.732;2023-03-01T10:39:19;44.47;;;23.02;;
33830;SDS011;20137;48.834;8.732;2023-03-01T10:47:02;43.88;;;24.08;;
33830;SDS011;20137;48.834;8.732;2023-03-01T10:49:27;38.28;;;22.50;;
33830;SDS011;20137;48.834;8.732;2023-03-01T10:51:53;44.40;;;23.10;;
33830;SDS011;20137;48.834;8.732;2023-03-01T10:54:25;44.55;;;23.50;;
33830;SDS011;20137;48.834;8.732;2023-03-01T10:56:54;49.38;;;24.30;;
33830;SDS011;20137;48.834;8.732;2023-03-01T10:59:26;42.78;;;23.27;;
33830;SDS011;20137;48.834;8.732;2023-03-01T11:02:15;44.97;;;22.42;;
33830;SDS011;20137;48.834;8.732;2023-03-01T11:10:25;39.92;;;22.30;;
33830;SDS011;20137;48.834;8.732;2023-03-01T11:12:53;46.10;;;23.95;;
33830;SDS011;20137;48.834;8.732;2023-03-01T11:15:30;45.22;;;22.60;;
33830;SDS011;20137;48.834;8.732;2023-03-01T11:17:56;41.63;;;23.17;;
33830;SDS011;20137;48.834;8.732;2023-03-01T11:20:35;45.67;;;24.88;;
33830;SDS011;20137;48.834;8.732;2023-03-01T11:25:33;40.40;;;23.20;;
33830;SDS011;20137;48.834;8.732;2023-03-01T11:28:03;40.85;;;23.13;;
33830;SDS011;20137;48.834;8.732;2023-03-01T11:30:40;40.92;;;22.00;;
33830;SDS011;20137;48.834;8.732;2023-03-01T11:35:49;43.75;;;22.25;;
33830;SDS011;20137;48.834;8.732;2023-03-01T11:38:23;44.03;;;24.23;;
33830;SDS011;20137;48.834;8.732;2023-03-01T11:46:29;42.42;;;23.52;;
33830;SDS011;20137;48.834;8.732;2023-03-01T11:52:25;41.70;;;22.38;;
33830;SDS011;20137;48.834;8.732;2023-03-01T12:06:28;45.83;;;23.15;;
33830;SDS011;20137;48.834;8.732;2023-03-01T12:20:44;38.25;;;21.75;;
33830;SDS011;20137;48.834;8.732;2023-03-01T12:25:37;45.53;;;22.50;;
33830;SDS011;20137;48.834;8.732;2023-03-01T12:28:17;41.47;;;22.30;;
33830;SDS011;20137;48.834;8.732;2023-03-01T12:31:10;40.50;;;21.63;;
33830;SDS011;20137;48.834;8.732;2023-03-01T12:34:11;38.67;;;21.50;;
33830;SDS011;20137;48.834;8.732;2023-03-01T12:43:02;40.45;;;23.02;;
33830;SDS011;20137;48.834;8.732;2023-03-01T12:45:50;44.85;;;21.33;;
33830;SDS011;20137;48.834;8.732;2023-03-01T12:48:38;44.28;;;23.40;;
33830;SDS011;20137;48.834;8.732;2023-03-01T12:51:26;45.42;;;22.80;;
33830;SDS011;20137;48.834;8.732;2023-03-01T12:53:55;43.15;;;22.45;;
33830;SDS011;20137;48.834;8.732;2023-03-01T12:56:24;41.58;;;22.73;;
33830;SDS011;20137;48.834;8.732;2023-03-01T12:59:03;42.67;;;22.30;;
33830;SDS011;20137;48.834;8.732;2023-03-01T13:12:01;39.58;;;21.13;;
33830;SDS011;20137;48.834;8.732;2023-03-01T13:16:56;41.10;;;22.27;;
33830;SDS011;20137;48.834;8.732;2023-03-01T13:19:22;39.97;;;21.80;;
33830;SDS011;20137;48.834;8.732;2023-03-01T13:21:49;40.33;;;21.88;;
33830;SDS011;20137;48.834;8.732;2023-03-01T13:24:26;43.72;;;23.52;;
33830;SDS011;20137;48.834;8.732;2023-03-01T13:29:32;41.75;;;22.50;;
33830;SDS011;20137;48.834;8.732;2023-03-01T13:34:51;41.60;;;22.23;;
33830;SDS011;20137;48.834;8.732;2023-03-01T13:37:20;43.15;;;22.67;;
33830;SDS011;20137;48.834;8.732;2023-03-01T13:39:47;39.03;;;21.80;;
33830;SDS011;20137;48.834;8.732;2023-03-01T13:42:47;43.08;;;23.00;;
33830;SDS011;20137;48.834;8.732;2023-03-01T13:45:14;43.13;;;24.05;;
33830;SDS011;20137;48.834;8.732;2023-03-01T13:47:41;40.58;;;23.25;;
33830;SDS011;20137;48.834;8.732;2023-03-01T13:50:15;43.13;;;23.35;;
33830;SDS011;20137;48.834;8.732;2023-03-01T13:52:44;40.83;;;22.95;;
33830;SDS011;20137;48.834;8.732;2023-03-01T13:55:21;41.53;;;23.35;;
33830;SDS011;20137;48.834;8.732;2023-03-01T13:57:51;40.20;;;23.05;;
33830;SDS011;20137;48.834;8.732;2023-03-01T14:03:02;39.75;;;23.15;;
33830;SDS011;20137;48.834;8.732;2023-03-01T14:05:37;43.00;;;22.70;;
33830;SDS011;20137;48.834;8.732;2023-03-01T14:08:04;39.53;;;23.88;;
33830;SDS011;20137;48.834;8.732;2023-03-01T14:16:03;42.90;;;22.85;;
33830;SDS011;20137;48.834;8.732;2023-03-01T14:18:52;42.45;;;23.77;;
33830;SDS011;20137;48.834;8.732;2023-03-01T14:21:29;45.53;;;24.85;;
33830;SDS011;20137;48.834;8.732;2023-03-01T14:23:55;47.05;;;23.60;;
33830;SDS011;20137;48.834;8.732;2023-03-01T14:26:22;38.30;;;22.98;;
33830;SDS011;20137;48.834;8.732;2023-03-01T14:28:49;40.72;;;23.50;;
33830;SDS011;20137;48.834;8.732;2023-03-01T14:34:01;40.88;;;22.63;;
33830;SDS011;20137;48.834;8.732;2023-03-01T14:36:28;40.83;;;23.30;;
33830;SDS011;20137;48.834;8.732;2023-03-01T14:38:55;48.58;;;23.17;;
33830;SDS011;20137;48.834;8.732;2023-03-01T14:41:24;40.75;;;23.50;;
33830;SDS011;20137;48.834;8.732;2023-03-01T14:43:55;43.10;;;23.40;;
33830;SDS011;20137;48.834;8.732;2023-03-01T14:46:51;44.83;;;22.90;;
33830;SDS011;20137;48.834;8.732;2023-03-01T14:49:20;43.75;;;22.83;;
33830;SDS011;20137;48.834;8.732;2023-03-01T14:52:35;41.28;;;23.45;;
33830;SDS011;20137;48.834;8.732;2023-03-01T14:54:51;43.28;;;21.73;;
33830;SDS011;20137;48.834;8.732;2023-03-01T14:57:20;40.35;;;21.80;;
33830;SDS011;20137;48.834;8.732;2023-03-01T14:59:48;39.72;;;21.55;;
33830;SDS011;20137;48.834;8.732;2023-03-01T15:02:26;43.50;;;23.02;;
33830;SDS011;20137;48.834;8.732;2023-03-01T15:04:55;43.30;;;22.20;;
33830;SDS011;20137;48.834;8.732;2023-03-01T15:07:22;48.90;;;25.05;;
33830;SDS011;20137;48.834;8.732;2023-03-01T15:09:52;41.10;;;23.13;;
33830;SDS011;20137;48.834;8.732;2023-03-01T15:14:53;37.60;;;21.77;;
33830;SDS011;20137;48.834;8.732;2023-03-01T15:17:29;38.13;;;21.80;;
33830;SDS011;20137;48.834;8.732;2023-03-01T15:19:57;39.60;;;21.52;;
33830;SDS011;20137;48.834;8.732;2023-03-01T15:22:24;38.08;;;20.88;;
33830;SDS011;20137;48.834;8.732;2023-03-01T15:24:51;40.92;;;22.48;;
33830;SDS011;20137;48.834;8.732;2023-03-01T15:27:18;38.53;;;21.77;;
33830;SDS011;20137;48.834;8.732;2023-03-01T15:29:53;41.55;;;21.35;;
33830;SDS011;20137;48.834;8.732;2023-03-01T15:34:58;39.55;;;22.25;;
33830;SDS011;20137;48.834;8.732;2023-03-01T15:37:37;38.95;;;22.10;;
33830;SDS011;20137;48.834;8.732;2023-03-01T15:40:17;40.17;;;22.42;;
33830;SDS011;20137;48.834;8.732;2023-03-01T15:43:03;40.30;;;21.42;;
33830;SDS011;20137;48.834;8.732;2023-03-01T15:45:30;41.42;;;23.25;;
33830;SDS011;20137;48.834;8.732;2023-03-01T15:48:14;41.05;;;23.52;;
33830;SDS011;20137;48.834;8.732;2023-03-01T15:50:53;43.75;;;23.83;;
33830;SDS011;20137;48.834;8.732;2023-03-01T15:53:21;38.15;;;20.52;;
33830;SDS011;20137;48.834;8.732;2023-03-01T15:55:47;37.50;;;21.90;;
33830;SDS011;20137;48.834;8.732;2023-03-01T15:58:16;39.35;;;22.52;;
33830;SDS011;20137;48.834;8.732;2023-03-01T16:00:50;39.92;;;21.63;;
33830;SDS011;20137;48.834;8.732;2023-03-01T16:03:21;38.92;;;21.15;;
33830;SDS011;20137;48.834;8.732;2023-03-01T16:05:51;44.80;;;21.88;;
33830;SDS011;20137;48.834;8.732;2023-03-01T16:08:17;36.42;;;20.65;;
33830;SDS011;20137;48.834;8.732;2023-03-01T16:10:43;39.08;;;20.40;;
33830;SDS011;20137;48.834;8.732;2023-03-01T16:13:11;42.33;;;21.58;;
33830;SDS011;20137;48.834;8.732;2023-03-01T16:15:37;38.00;;;20.27;;
33830;SDS011;20137;48.834;8.732;2023-03-01T16:18:04;39.33;;;20.25;;
33830;SDS011;20137;48.834;8.732;2023-03-01T16:20:32;38.25;;;20.52;;
33830;SDS011;20137;48.834;8.732;2023-03-01T16:22:58;40.47;;;21.45;;
33830;SDS011;20137;48.834;8.732;2023-03-01T16:25:25;40.28;;;21.30;;
33830;SDS011;20137;48.834;8.732;2023-03-01T16:27:51;41.53;;;22.15;;
33830;SDS011;20137;48.834;8.732;2023-03-01T16:30:18;38.38;;;21.55;;
33830;SDS011;20137;48.834;8.732;2023-03-01T16:32:45;43.83;;;21.98;;
33830;SDS011;20137;48.834;8.732;2023-03-01T16:35:13;40.92;;;21.48;;